createdAt,value
2022-12-25T00:00:41.119Z,17.99
2022-12-25T00:01:40.950Z,18.05
2022-12-25T00:02:41.074Z,17.99
2022-12-25T00:03:41.098Z,17.99
2022-12-25T00:04:40.934Z,18.01
2022-12-25T00:05:40.910Z,18.05
2022-12-25T00:06:40.934Z,18.04
2022-12-25T00:07:40.867Z,18.08
2022-12-25T00:08:40.902Z,18.02
2022-12-25T00:09:40.845Z,18.07
2022-12-25T00:10:45.239Z,18.07
2022-12-25T00:11:40.841Z,18.10
2022-12-25T00:12:40.832Z,18.23
2022-12-25T00:13:40.820Z,18.18
2022-12-25T00:14:40.818Z,18.23
2022-12-25T00:15:40.793Z,18.18
2022-12-25T00:16:40.853Z,18.19
2022-12-25T00:17:40.753Z,18.18
2022-12-25T00:18:40.760Z,18.15
2022-12-25T00:19:40.740Z,18.24
2022-12-25T00:20:40.748Z,18.16
2022-12-25T00:21:40.704Z,18.23
2022-12-25T00:22:40.714Z,18.23
2022-12-25T00:23:40.692Z,18.13
2022-12-25T00:24:40.694Z,18.12
2022-12-25T00:25:40.679Z,18.10
2022-12-25T00:26:40.683Z,18.08
2022-12-25T00:27:40.641Z,18.18
2022-12-25T00:28:40.649Z,18.13
2022-12-25T00:29:40.652Z,18.13
2022-12-25T00:30:40.664Z,18.12
2022-12-25T00:31:40.658Z,18.18
2022-12-25T00:32:40.606Z,18.19
2022-12-25T00:33:40.607Z,18.21
2022-12-25T00:34:40.595Z,18.29
2022-12-25T00:35:40.570Z,18.23
2022-12-25T00:36:42.183Z,18.27
2022-12-25T00:37:40.536Z,18.34
2022-12-25T00:38:40.534Z,18.29
2022-12-25T00:39:40.508Z,18.32
2022-12-25T00:40:40.530Z,18.21
2022-12-25T00:41:40.509Z,18.35
2022-12-25T00:42:40.511Z,18.34
2022-12-25T00:43:40.457Z,18.37
2022-12-25T00:44:40.471Z,18.24
2022-12-25T00:45:40.489Z,18.24
2022-12-25T00:46:40.484Z,18.24
2022-12-25T00:47:40.418Z,18.26
2022-12-25T00:48:40.413Z,18.24
2022-12-25T00:49:40.394Z,18.19
2022-12-25T00:50:40.421Z,18.23
2022-12-25T00:51:40.395Z,18.10
2022-12-25T00:52:40.386Z,18.08
2022-12-25T00:53:40.350Z,18.05
2022-12-25T00:54:40.353Z,17.98
2022-12-25T00:55:40.321Z,18.04
2022-12-25T00:56:40.351Z,17.96
2022-12-25T00:57:40.300Z,18.05
2022-12-25T00:58:40.330Z,18.01
2022-12-25T00:59:40.279Z,18.01
2022-12-25T01:00:40.332Z,18.02
2022-12-25T01:01:40.452Z,17.98
2022-12-25T01:02:40.379Z,17.98
2022-12-25T01:03:40.268Z,17.96
2022-12-25T01:04:40.260Z,17.99
2022-12-25T01:05:40.233Z,17.87
2022-12-25T01:06:40.250Z,17.90
2022-12-25T01:07:40.207Z,17.92
2022-12-25T01:08:40.193Z,17.89
2022-12-25T01:09:40.195Z,17.95
2022-12-25T01:10:40.192Z,17.93
2022-12-25T01:11:40.169Z,17.89
2022-12-25T01:12:40.155Z,17.87
2022-12-25T01:13:40.137Z,17.87
2022-12-25T01:14:40.140Z,17.84
2022-12-25T01:15:40.116Z,17.82
2022-12-25T01:16:40.196Z,17.79
2022-12-25T01:17:40.123Z,17.81
2022-12-25T01:18:40.091Z,17.70
2022-12-25T01:19:40.058Z,17.75
2022-12-25T01:20:40.061Z,17.76
2022-12-25T01:21:40.041Z,17.69
2022-12-25T01:22:40.035Z,17.61
2022-12-25T01:23:40.024Z,17.69
2022-12-25T01:24:40.020Z,17.73
2022-12-25T01:25:39.994Z,17.70
2022-12-25T01:26:40.007Z,17.70
2022-12-25T01:27:39.962Z,17.72
2022-12-25T01:28:39.980Z,17.70
2022-12-25T01:29:39.954Z,17.69
2022-12-25T01:30:39.954Z,17.76
2022-12-25T01:31:39.978Z,17.76
2022-12-25T01:32:39.940Z,17.76
2022-12-25T01:33:39.891Z,17.70
2022-12-25T01:34:39.918Z,17.81
2022-12-25T01:35:39.872Z,17.82
2022-12-25T01:36:39.886Z,17.81
2022-12-25T01:37:39.849Z,17.75
2022-12-25T01:38:39.914Z,17.82
2022-12-25T01:39:39.862Z,17.89
2022-12-25T01:40:39.840Z,17.92
2022-12-25T01:41:39.820Z,17.85
2022-12-25T01:42:39.816Z,17.95
2022-12-25T01:43:39.797Z,17.95
2022-12-25T01:44:39.814Z,17.99
2022-12-25T01:45:39.791Z,18.01
2022-12-25T01:46:39.767Z,17.93
2022-12-25T01:47:39.739Z,18.01
2022-12-25T01:48:39.740Z,18.02
2022-12-25T01:49:39.737Z,17.98
2022-12-25T01:50:39.715Z,17.99
2022-12-25T01:51:39.694Z,17.96
2022-12-25T01:52:39.707Z,17.95
2022-12-25T01:53:39.675Z,17.87
2022-12-25T01:54:39.693Z,17.95
2022-12-25T01:55:39.652Z,17.95
2022-12-25T01:56:39.655Z,17.95
2022-12-25T01:57:39.637Z,17.90
2022-12-25T01:58:39.626Z,17.92
2022-12-25T01:59:39.619Z,17.96
2022-12-25T02:00:39.708Z,17.93
2022-12-25T02:01:39.699Z,17.98
2022-12-25T02:02:39.700Z,18.07
2022-12-25T02:03:39.561Z,18.04
2022-12-25T02:04:39.617Z,18.02
2022-12-25T02:05:39.536Z,18.01
2022-12-25T02:06:39.543Z,17.95
2022-12-25T02:07:39.515Z,18.07
2022-12-25T02:08:39.509Z,17.99
2022-12-25T02:09:39.495Z,17.93
2022-12-25T02:10:39.501Z,18.04
2022-12-25T02:11:39.467Z,18.04
2022-12-25T02:12:39.473Z,18.04
2022-12-25T02:13:39.445Z,18.04
2022-12-25T02:14:39.453Z,18.04
2022-12-25T02:15:39.437Z,18.04
2022-12-25T02:16:56.822Z,17.99
2022-12-25T02:17:40.404Z,18.05
2022-12-25T02:18:39.397Z,18.04
2022-12-25T02:19:39.373Z,18.02
2022-12-25T02:20:39.381Z,17.98
2022-12-25T02:21:39.403Z,18.01
2022-12-25T02:22:39.362Z,18.07
2022-12-25T02:23:39.341Z,18.01
2022-12-25T02:24:39.336Z,18.04
2022-12-25T02:25:39.318Z,18.04
2022-12-25T02:26:39.312Z,18.12
2022-12-25T02:27:39.287Z,18.05
2022-12-25T02:28:42.075Z,18.10
2022-12-25T02:29:40.267Z,18.13
2022-12-25T02:30:39.313Z,18.23
2022-12-25T02:31:39.296Z,18.19
2022-12-25T02:32:39.237Z,18.24
2022-12-25T02:33:39.220Z,18.21
2022-12-25T02:34:39.271Z,18.23
2022-12-25T02:35:39.221Z,18.24
2022-12-25T02:36:39.211Z,18.27
2022-12-25T02:37:39.177Z,18.31
2022-12-25T02:38:39.188Z,18.31
2022-12-25T02:39:39.151Z,18.31
2022-12-25T02:40:39.170Z,18.35
2022-12-25T02:41:39.125Z,18.31
2022-12-25T02:42:39.140Z,18.32
2022-12-25T02:43:39.113Z,18.31
2022-12-25T02:44:39.096Z,18.29
2022-12-25T02:45:39.167Z,18.29
2022-12-25T02:46:39.091Z,18.31
2022-12-25T02:47:39.072Z,18.23
2022-12-25T02:48:39.065Z,18.26
2022-12-25T02:49:39.040Z,18.26
2022-12-25T02:50:39.043Z,18.23
2022-12-25T02:51:39.031Z,18.19
2022-12-25T02:52:39.018Z,18.27
2022-12-25T02:53:38.981Z,18.18
2022-12-25T02:54:38.992Z,18.23
2022-12-25T02:55:38.961Z,18.24
2022-12-25T02:56:38.979Z,18.24
2022-12-25T02:57:38.961Z,18.19
2022-12-25T02:58:38.958Z,18.19
2022-12-25T02:59:38.915Z,18.18
2022-12-25T03:00:38.921Z,18.26
2022-12-25T03:01:39.002Z,18.23
2022-12-25T03:02:38.909Z,18.19
2022-12-25T03:03:39.025Z,18.24
2022-12-25T03:04:38.881Z,18.24
2022-12-25T03:05:38.854Z,18.19
2022-12-25T03:06:38.859Z,18.21
2022-12-25T03:07:38.831Z,18.24
2022-12-25T03:08:38.852Z,18.23
2022-12-25T03:09:38.817Z,18.15
2022-12-25T03:10:38.802Z,18.24
2022-12-25T03:11:38.790Z,18.23
2022-12-25T03:12:38.769Z,18.19
2022-12-25T03:13:38.808Z,18.29
2022-12-25T03:14:38.755Z,18.34
2022-12-25T03:15:38.766Z,18.31
2022-12-25T03:16:38.773Z,18.34
2022-12-25T03:17:38.740Z,18.40
2022-12-25T03:18:38.702Z,18.42
2022-12-25T03:19:38.723Z,18.40
2022-12-25T03:20:38.687Z,18.42
2022-12-25T03:21:38.685Z,18.40
2022-12-25T03:22:38.658Z,18.34
2022-12-25T03:23:38.681Z,18.31
2022-12-25T03:24:38.648Z,18.32
2022-12-25T03:25:38.657Z,18.29
2022-12-25T03:26:38.673Z,18.29
2022-12-25T03:27:38.607Z,18.27
2022-12-25T03:28:38.585Z,18.32
2022-12-25T03:29:38.593Z,18.34
2022-12-25T03:30:38.599Z,18.29
2022-12-25T03:31:38.564Z,18.31
2022-12-25T03:32:38.538Z,18.31
2022-12-25T03:33:46.058Z,18.26
2022-12-25T03:34:39.519Z,18.29
2022-12-25T03:35:38.536Z,18.29
2022-12-25T03:36:38.496Z,18.24
2022-12-25T03:37:38.500Z,18.29
2022-12-25T03:38:38.481Z,18.29
2022-12-25T03:39:38.479Z,18.23
2022-12-25T03:40:38.446Z,18.26
2022-12-25T03:41:38.483Z,18.26
2022-12-25T03:42:38.434Z,18.26
2022-12-25T03:43:38.434Z,18.29
2022-12-25T03:44:38.411Z,18.23
2022-12-25T03:45:38.416Z,18.29
2022-12-25T03:46:38.450Z,18.24
2022-12-25T03:47:38.380Z,18.31
2022-12-25T03:48:38.365Z,18.34
2022-12-25T03:49:38.365Z,18.29
2022-12-25T03:50:38.356Z,18.32
2022-12-25T03:51:38.344Z,18.34
2022-12-25T03:52:38.346Z,18.34
2022-12-25T03:53:38.317Z,18.26
2022-12-25T03:54:38.295Z,18.35
2022-12-25T03:55:38.287Z,18.32
2022-12-25T03:56:38.261Z,18.34
2022-12-25T03:57:38.289Z,18.32
2022-12-25T03:58:38.264Z,18.31
2022-12-25T03:59:38.266Z,18.39
2022-12-25T04:00:38.232Z,18.29
2022-12-25T04:01:38.294Z,18.31
2022-12-25T04:02:38.397Z,18.29
2022-12-25T04:03:38.284Z,18.37
2022-12-25T04:04:38.186Z,18.35
2022-12-25T04:05:38.196Z,18.45
2022-12-25T04:06:38.162Z,18.40
2022-12-25T04:07:38.161Z,18.48
2022-12-25T04:08:38.122Z,18.43
2022-12-25T04:09:38.156Z,18.40
2022-12-25T04:10:38.110Z,18.45
2022-12-25T04:11:38.119Z,18.43
2022-12-25T04:12:38.085Z,18.48
2022-12-25T04:13:38.077Z,18.51
2022-12-25T04:14:38.073Z,18.51
2022-12-25T04:15:38.128Z,18.50
2022-12-25T04:16:38.051Z,18.57
2022-12-25T04:17:38.041Z,18.58
2022-12-25T04:18:38.018Z,18.58
2022-12-25T04:19:38.026Z,18.60
2022-12-25T04:20:38.005Z,18.63
2022-12-25T04:21:38.004Z,18.68
2022-12-25T04:22:37.973Z,18.70
2022-12-25T04:23:37.968Z,18.66
2022-12-25T04:24:37.946Z,18.76
2022-12-25T04:25:37.965Z,18.75
2022-12-25T04:26:37.938Z,18.73
2022-12-25T04:27:37.934Z,18.76
2022-12-25T04:28:37.914Z,18.80
2022-12-25T04:29:37.918Z,18.85
2022-12-25T04:30:37.889Z,18.78
2022-12-25T04:31:37.956Z,18.78
2022-12-25T04:32:37.860Z,18.81
2022-12-25T04:33:37.865Z,18.76
2022-12-25T04:34:37.837Z,18.83
2022-12-25T04:35:37.840Z,18.90
2022-12-25T04:36:37.809Z,18.81
2022-12-25T04:37:37.837Z,18.90
2022-12-25T04:38:37.804Z,18.85
2022-12-25T04:39:37.797Z,18.88
2022-12-25T04:40:37.764Z,18.88
2022-12-25T04:41:37.775Z,18.90
2022-12-25T04:42:37.757Z,18.90
2022-12-25T04:43:37.767Z,18.93
2022-12-25T04:44:37.721Z,18.95
2022-12-25T04:45:37.734Z,18.95
2022-12-25T04:46:37.741Z,18.90
2022-12-25T04:47:37.721Z,18.95
2022-12-25T04:48:37.673Z,18.95
2022-12-25T04:49:37.681Z,19.03
2022-12-25T04:50:37.649Z,19.05
2022-12-25T04:51:37.656Z,19.02
2022-12-25T04:52:37.642Z,19.02
2022-12-25T04:53:37.640Z,18.93
2022-12-25T04:54:37.610Z,18.97
2022-12-25T04:55:37.621Z,18.90
2022-12-25T04:56:43.451Z,18.88
2022-12-25T04:57:38.613Z,18.85
2022-12-25T04:58:37.584Z,18.85
2022-12-25T04:59:37.578Z,18.76
2022-12-25T05:00:37.540Z,18.92
2022-12-25T05:01:37.605Z,18.85
2022-12-25T05:02:37.768Z,18.75
2022-12-25T05:03:37.592Z,18.78
2022-12-25T05:04:37.505Z,18.78
2022-12-25T05:05:37.502Z,18.75
2022-12-25T05:06:37.486Z,18.73
2022-12-25T05:07:37.473Z,18.75
2022-12-25T05:08:37.442Z,18.78
2022-12-25T05:09:37.461Z,18.75
2022-12-25T05:10:37.428Z,18.68
2022-12-25T05:11:37.447Z,18.73
2022-12-25T05:12:37.394Z,18.66
2022-12-25T05:13:37.422Z,18.66
2022-12-25T05:14:37.385Z,18.71
2022-12-25T05:15:37.438Z,18.63
2022-12-25T05:16:37.359Z,18.58
2022-12-25T05:17:37.355Z,18.66
2022-12-25T05:18:37.340Z,18.61
2022-12-25T05:19:37.340Z,18.61
2022-12-25T05:20:40.212Z,18.66
2022-12-25T05:21:37.316Z,18.60
2022-12-25T05:22:37.305Z,18.60
2022-12-25T05:23:37.303Z,18.51
2022-12-25T05:24:37.268Z,18.50
2022-12-25T05:25:37.288Z,18.55
2022-12-25T05:26:37.242Z,18.57
2022-12-25T05:27:37.250Z,18.55
2022-12-25T05:28:37.228Z,18.50
2022-12-25T05:29:37.229Z,18.53
2022-12-25T05:30:37.214Z,18.51
2022-12-25T05:31:37.298Z,18.61
2022-12-25T05:32:37.202Z,18.58
2022-12-25T05:33:37.187Z,18.53
2022-12-25T05:34:37.168Z,18.51
2022-12-25T05:35:37.173Z,18.55
2022-12-25T05:36:37.134Z,18.50
2022-12-25T05:37:37.151Z,18.50
2022-12-25T05:38:37.111Z,18.53
2022-12-25T05:39:37.124Z,18.50
2022-12-25T05:40:37.086Z,18.48
2022-12-25T05:41:37.115Z,18.40
2022-12-25T05:42:37.089Z,18.40
2022-12-25T05:43:37.073Z,18.48
2022-12-25T05:44:37.038Z,18.50
2022-12-25T05:45:37.038Z,18.55
2022-12-25T05:46:37.075Z,18.48
2022-12-25T05:47:37.061Z,18.50
2022-12-25T05:48:37.053Z,18.48
2022-12-25T05:49:36.999Z,18.50
2022-12-25T05:50:36.978Z,18.45
2022-12-25T05:51:36.996Z,18.55
2022-12-25T05:52:36.967Z,18.61
2022-12-25T05:53:36.966Z,18.60
2022-12-25T05:54:36.932Z,18.48
2022-12-25T05:55:36.941Z,18.57
2022-12-25T05:56:36.916Z,18.61
2022-12-25T05:57:36.915Z,18.53
2022-12-25T05:58:36.891Z,18.71
2022-12-25T05:59:36.896Z,18.68
2022-12-25T06:00:36.861Z,18.68
2022-12-25T06:01:37.017Z,18.65
2022-12-25T06:02:37.069Z,18.61
2022-12-25T06:03:36.925Z,18.63
2022-12-25T06:04:36.809Z,18.68
2022-12-25T06:05:36.816Z,18.57
2022-12-25T06:06:36.827Z,18.58
2022-12-25T06:07:36.792Z,18.70
2022-12-25T06:08:36.775Z,18.70
2022-12-25T06:09:36.774Z,18.73
2022-12-25T06:10:36.777Z,18.70
2022-12-25T06:11:36.766Z,18.73
2022-12-25T06:12:36.721Z,18.73
2022-12-25T06:13:36.734Z,18.75
2022-12-25T06:14:36.708Z,18.78
2022-12-25T06:15:36.709Z,18.85
2022-12-25T06:16:38.467Z,18.81
2022-12-25T06:17:36.686Z,18.88
2022-12-25T06:18:36.657Z,18.90
2022-12-25T06:19:36.658Z,18.92
2022-12-25T06:20:36.627Z,18.85
2022-12-25T06:21:36.651Z,18.88
2022-12-25T06:22:36.605Z,18.92
2022-12-25T06:23:36.645Z,18.92
2022-12-25T06:24:36.603Z,18.92
2022-12-25T06:25:36.593Z,18.92
2022-12-25T06:26:36.570Z,18.92
2022-12-25T06:27:36.585Z,18.98
2022-12-25T06:28:36.555Z,18.93
2022-12-25T06:29:36.545Z,18.93
2022-12-25T06:30:36.530Z,19.02
2022-12-25T06:31:36.595Z,19.02
2022-12-25T06:32:36.511Z,19.10
2022-12-25T06:33:36.497Z,19.10
2022-12-25T06:34:36.481Z,19.14
2022-12-25T06:35:36.480Z,19.23
2022-12-25T06:36:36.444Z,19.19
2022-12-25T06:37:36.458Z,19.16
2022-12-25T06:38:36.440Z,19.17
2022-12-25T06:39:36.426Z,19.05
2022-12-25T06:40:36.409Z,19.12
2022-12-25T06:41:36.399Z,19.09
2022-12-25T06:42:36.379Z,19.02
2022-12-25T06:43:36.383Z,19.03
2022-12-25T06:44:36.388Z,19.07
2022-12-25T06:45:36.411Z,18.95
2022-12-25T06:46:36.335Z,18.98
2022-12-25T06:47:36.341Z,19.02
2022-12-25T06:48:36.313Z,18.90
2022-12-25T06:49:36.312Z,18.98
2022-12-25T06:50:36.321Z,18.98
2022-12-25T06:51:36.300Z,18.95
2022-12-25T06:52:36.269Z,19.00
2022-12-25T06:53:40.411Z,18.98
2022-12-25T06:54:36.253Z,18.98
2022-12-25T06:55:36.261Z,19.02
2022-12-25T06:56:36.228Z,18.98
2022-12-25T06:57:36.218Z,18.92
2022-12-25T06:58:36.199Z,18.95
2022-12-25T06:59:36.205Z,19.00
2022-12-25T07:00:36.237Z,18.88
2022-12-25T07:01:36.283Z,18.95
2022-12-25T07:02:36.339Z,18.92
2022-12-25T07:03:36.165Z,18.92
2022-12-25T07:04:36.147Z,18.98
2022-12-25T07:05:36.150Z,18.88
2022-12-25T07:06:36.115Z,18.93
2022-12-25T07:07:36.108Z,18.86
2022-12-25T07:08:36.091Z,18.92
2022-12-25T07:09:36.111Z,18.93
2022-12-25T07:10:36.079Z,18.93
2022-12-25T07:11:36.087Z,18.98
2022-12-25T07:12:36.041Z,19.00
2022-12-25T07:13:36.045Z,19.00
2022-12-25T07:14:36.024Z,19.10
2022-12-25T07:15:36.011Z,19.09
2022-12-25T07:16:36.033Z,19.12
2022-12-25T07:17:36.009Z,19.23
2022-12-25T07:18:35.980Z,19.30
2022-12-25T07:19:41.089Z,19.41
2022-12-25T07:20:36.947Z,19.46
2022-12-25T07:21:35.943Z,19.57
2022-12-25T07:22:35.949Z,19.62
2022-12-25T07:23:35.924Z,19.77
2022-12-25T07:24:35.899Z,19.88
2022-12-25T07:25:37.547Z,19.94
2022-12-25T07:26:35.871Z,20.11
2022-12-25T07:27:35.892Z,20.19
2022-12-25T07:28:35.882Z,20.30
2022-12-25T07:29:35.844Z,20.40
2022-12-25T07:30:35.858Z,20.48
2022-12-25T07:31:35.873Z,20.56
2022-12-25T07:32:35.833Z,20.64
2022-12-25T07:33:35.812Z,20.68
2022-12-25T07:34:35.803Z,20.77
2022-12-25T07:35:35.783Z,20.83
2022-12-25T07:36:35.792Z,20.85
2022-12-25T07:37:35.741Z,20.91
2022-12-25T07:38:35.772Z,20.93
2022-12-25T07:39:35.728Z,20.93
2022-12-25T07:40:35.737Z,20.93
2022-12-25T07:41:35.700Z,20.97
2022-12-25T07:42:35.718Z,21.04
2022-12-25T07:43:35.685Z,21.06
2022-12-25T07:44:35.690Z,21.04
2022-12-25T07:45:35.692Z,21.12
2022-12-25T07:46:35.653Z,21.16
2022-12-25T07:47:35.634Z,21.18
2022-12-25T07:48:35.668Z,21.23
2022-12-25T07:49:35.617Z,21.29
2022-12-25T07:50:35.620Z,21.33
2022-12-25T07:51:35.582Z,21.44
2022-12-25T07:52:42.971Z,21.53
2022-12-25T07:53:36.602Z,21.62
2022-12-25T07:54:35.565Z,21.71
2022-12-25T07:55:35.586Z,21.67
2022-12-25T07:56:35.597Z,21.67
2022-12-25T07:57:35.708Z,21.78
2022-12-25T07:58:35.592Z,21.78
2022-12-25T07:59:35.495Z,21.82
2022-12-25T08:00:35.580Z,21.84
2022-12-25T08:01:35.688Z,21.89
2022-12-25T08:02:35.715Z,21.91
2022-12-25T08:03:35.747Z,21.84
2022-12-25T08:04:35.469Z,21.89
2022-12-25T08:05:35.441Z,21.98
2022-12-25T08:06:35.457Z,22.08
2022-12-25T08:07:35.410Z,22.15
2022-12-25T08:08:35.439Z,22.28
2022-12-25T08:09:35.401Z,22.33
2022-12-25T08:10:35.403Z,22.33
2022-12-25T08:11:35.367Z,22.48
2022-12-25T08:12:35.356Z,22.50
2022-12-25T08:13:35.361Z,22.52
2022-12-25T08:14:35.343Z,22.62
2022-12-25T08:15:35.316Z,22.72
2022-12-25T08:16:35.443Z,22.74
2022-12-25T08:17:35.317Z,22.84
2022-12-25T08:18:35.315Z,22.97
2022-12-25T08:19:35.282Z,23.12
2022-12-25T08:20:35.290Z,23.14
2022-12-25T08:21:35.257Z,23.25
2022-12-25T08:22:35.261Z,23.27
2022-12-25T08:23:35.238Z,23.43
2022-12-25T08:24:35.233Z,23.48
2022-12-25T08:25:35.202Z,23.51
2022-12-25T08:26:35.205Z,23.62
2022-12-25T08:27:35.199Z,23.56
2022-12-25T08:28:35.199Z,23.53
2022-12-25T08:29:35.172Z,23.48
2022-12-25T08:30:35.192Z,23.56
2022-12-25T08:31:37.257Z,23.62
2022-12-25T08:32:35.124Z,23.60
2022-12-25T08:33:35.110Z,23.56
2022-12-25T08:34:35.129Z,23.64
2022-12-25T08:35:35.083Z,23.56
2022-12-25T08:36:35.107Z,23.66
2022-12-25T08:37:35.068Z,23.66
2022-12-25T08:38:35.079Z,23.81
2022-12-25T08:39:35.062Z,23.80
2022-12-25T08:40:35.043Z,23.86
2022-12-25T08:41:35.017Z,23.76
2022-12-25T08:42:35.018Z,23.80
2022-12-25T08:43:35.012Z,23.81
2022-12-25T08:44:34.995Z,23.92
2022-12-25T08:45:35.559Z,23.95
2022-12-25T08:46:35.067Z,24.01
2022-12-25T08:47:34.938Z,24.04
2022-12-25T08:48:34.948Z,24.01
2022-12-25T08:49:34.918Z,24.03
2022-12-25T08:50:34.970Z,23.99
2022-12-25T08:51:34.923Z,24.03
2022-12-25T08:52:34.887Z,23.86
2022-12-25T08:53:34.881Z,23.72
2022-12-25T08:54:34.890Z,23.51
2022-12-25T08:55:34.895Z,23.20
2022-12-25T08:56:34.871Z,23.04
2022-12-25T08:57:34.834Z,22.97
2022-12-25T08:58:34.841Z,22.94
2022-12-25T08:59:34.816Z,22.92
2022-12-25T09:00:34.837Z,22.89
2022-12-25T09:01:34.869Z,22.87
2022-12-25T09:02:34.896Z,22.72
2022-12-25T09:03:34.844Z,22.69
2022-12-25T09:04:34.800Z,22.60
2022-12-25T09:05:34.761Z,22.62
2022-12-25T09:06:34.761Z,22.72
2022-12-25T09:07:34.709Z,22.79
2022-12-25T09:08:34.718Z,22.82
2022-12-25T09:09:34.710Z,22.92
2022-12-25T09:10:34.699Z,23.09
2022-12-25T09:11:34.686Z,23.25
2022-12-25T09:12:34.672Z,23.22
2022-12-25T09:13:34.639Z,23.25
2022-12-25T09:14:34.648Z,23.22
2022-12-25T09:15:34.677Z,23.27
2022-12-25T09:16:34.634Z,23.25
2022-12-25T09:17:34.598Z,23.38
2022-12-25T09:18:34.610Z,23.43
2022-12-25T09:19:34.580Z,23.43
2022-12-25T09:20:34.586Z,23.40
2022-12-25T09:21:34.547Z,23.35
2022-12-25T09:22:34.614Z,23.32
2022-12-25T09:23:34.525Z,23.32
2022-12-25T09:24:34.533Z,23.22
2022-12-25T09:25:34.522Z,23.09
2022-12-25T09:26:34.517Z,22.97
2022-12-25T09:27:34.500Z,22.89
2022-12-25T09:28:34.520Z,22.84
2022-12-25T09:29:34.459Z,22.82
2022-12-25T09:30:34.538Z,22.65
2022-12-25T09:31:34.499Z,22.67
2022-12-25T09:32:34.455Z,22.57
2022-12-25T09:33:34.424Z,22.52
2022-12-25T09:34:34.439Z,22.52
2022-12-25T09:35:34.430Z,22.43
2022-12-25T09:36:34.395Z,22.45
2022-12-25T09:37:34.370Z,22.38
2022-12-25T09:38:34.369Z,22.31
2022-12-25T09:39:34.352Z,22.26
2022-12-25T09:40:34.375Z,22.26
2022-12-25T09:41:34.315Z,22.24
2022-12-25T09:42:34.370Z,22.17
2022-12-25T09:43:34.293Z,22.08
2022-12-25T09:44:34.312Z,22.00
2022-12-25T09:45:34.280Z,21.98
2022-12-25T09:46:37.314Z,21.98
2022-12-25T09:47:34.271Z,21.96
2022-12-25T09:48:34.249Z,21.98
2022-12-25T09:49:34.225Z,21.94
2022-12-25T09:50:34.229Z,21.87
2022-12-25T09:51:34.220Z,21.84
2022-12-25T09:52:34.208Z,21.80
2022-12-25T09:53:34.185Z,21.80
2022-12-25T09:54:34.187Z,21.82
2022-12-25T09:55:34.174Z,21.78
2022-12-25T09:56:34.187Z,21.78
2022-12-25T09:57:34.135Z,21.75
2022-12-25T09:58:34.223Z,21.69
2022-12-25T09:59:34.107Z,21.69
2022-12-25T10:00:34.130Z,21.62
2022-12-25T10:01:34.160Z,21.58
2022-12-25T10:02:34.185Z,21.55
2022-12-25T10:03:34.093Z,21.58
2022-12-25T10:04:40.503Z,21.60
2022-12-25T10:05:35.049Z,21.53
2022-12-25T10:06:34.068Z,21.49
2022-12-25T10:07:34.028Z,21.38
2022-12-25T10:08:34.033Z,21.49
2022-12-25T10:09:33.998Z,21.51
2022-12-25T10:10:34.018Z,21.53
2022-12-25T10:11:33.972Z,21.58
2022-12-25T10:12:33.979Z,21.55
2022-12-25T10:13:33.966Z,21.60
2022-12-25T10:14:33.974Z,21.62
2022-12-25T10:15:33.964Z,21.64
2022-12-25T10:16:34.014Z,21.71
2022-12-25T10:17:33.911Z,21.73
2022-12-25T10:18:33.914Z,21.84
2022-12-25T10:19:33.889Z,21.84
2022-12-25T10:20:33.899Z,21.96
2022-12-25T10:21:33.861Z,21.98
2022-12-25T10:22:33.873Z,22.05
2022-12-25T10:23:33.841Z,22.00
2022-12-25T10:24:33.862Z,22.15
2022-12-25T10:25:33.820Z,22.22
2022-12-25T10:26:33.842Z,22.12
2022-12-25T10:27:33.789Z,22.19
2022-12-25T10:28:33.801Z,22.15
2022-12-25T10:29:33.771Z,22.12
2022-12-25T10:30:33.768Z,22.22
2022-12-25T10:31:33.835Z,22.19
2022-12-25T10:32:33.759Z,22.33
2022-12-25T10:33:33.724Z,22.36
2022-12-25T10:34:33.733Z,22.38
2022-12-25T10:35:33.738Z,22.33
2022-12-25T10:36:33.702Z,22.45
2022-12-25T10:37:33.696Z,22.57
2022-12-25T10:38:33.677Z,22.69
2022-12-25T10:39:33.653Z,22.84
2022-12-25T10:40:33.668Z,22.89
2022-12-25T10:41:33.631Z,23.07
2022-12-25T10:42:33.639Z,23.22
2022-12-25T10:43:33.626Z,23.38
2022-12-25T10:44:33.618Z,23.56
2022-12-25T10:45:33.594Z,23.81
2022-12-25T10:46:33.621Z,23.84
2022-12-25T10:47:33.584Z,24.01
2022-12-25T10:48:33.582Z,24.15
2022-12-25T10:49:33.557Z,24.29
2022-12-25T10:50:33.544Z,24.36
2022-12-25T10:51:33.517Z,24.45
2022-12-25T10:52:33.528Z,24.65
2022-12-25T10:53:33.526Z,24.68
2022-12-25T10:54:33.530Z,25.06
2022-12-25T10:55:33.531Z,25.50
2022-12-25T10:56:33.484Z,25.73
2022-12-25T10:57:33.449Z,25.95
2022-12-25T10:58:33.476Z,25.99
2022-12-25T10:59:33.435Z,26.25
2022-12-25T11:00:33.479Z,26.41
2022-12-25T11:01:33.556Z,26.41
2022-12-25T11:02:33.659Z,26.56
2022-12-25T11:03:33.527Z,26.80
2022-12-25T11:04:33.392Z,26.85
2022-12-25T11:05:33.385Z,26.99
2022-12-25T11:06:33.362Z,27.16
2022-12-25T11:07:33.345Z,27.37
2022-12-25T11:08:33.349Z,27.53
2022-12-25T11:09:33.310Z,27.77
2022-12-25T11:10:33.338Z,27.75
2022-12-25T11:11:33.290Z,27.52
2022-12-25T11:12:33.292Z,27.27
2022-12-25T11:13:33.274Z,27.20
2022-12-25T11:14:33.281Z,27.11
2022-12-25T11:15:33.267Z,27.00
2022-12-25T11:16:33.303Z,26.97
2022-12-25T11:17:33.216Z,26.76
2022-12-25T11:18:33.223Z,26.44
2022-12-25T11:19:33.197Z,26.30
2022-12-25T11:20:33.217Z,26.12
2022-12-25T11:21:33.210Z,26.07
2022-12-25T11:22:33.179Z,26.10
2022-12-25T11:23:33.173Z,26.07
2022-12-25T11:24:33.168Z,25.92
2022-12-25T11:25:33.124Z,25.62
2022-12-25T11:26:33.145Z,25.39
2022-12-25T11:27:33.109Z,25.28
2022-12-25T11:28:33.105Z,25.18
2022-12-25T11:29:33.084Z,24.92
2022-12-25T11:30:33.100Z,24.70
2022-12-25T11:31:33.116Z,24.46
2022-12-25T11:32:33.105Z,24.28
2022-12-25T11:33:33.062Z,24.21
2022-12-25T11:34:33.055Z,24.17
2022-12-25T11:35:33.047Z,24.04
2022-12-25T11:36:33.031Z,24.07
2022-12-25T11:37:32.984Z,24.18
2022-12-25T11:38:33.020Z,24.00
2022-12-25T11:39:32.962Z,23.66
2022-12-25T11:40:32.965Z,23.38
2022-12-25T11:41:32.961Z,23.07
2022-12-25T11:42:33.189Z,22.82
2022-12-25T11:43:32.930Z,22.72
2022-12-25T11:44:32.937Z,22.77
2022-12-25T11:45:32.916Z,22.72
2022-12-25T11:46:32.964Z,22.84
2022-12-25T11:47:32.931Z,22.82
2022-12-25T11:48:32.875Z,22.84
2022-12-25T11:49:32.907Z,22.77
2022-12-25T11:50:32.847Z,22.65
2022-12-25T11:51:32.855Z,22.65
2022-12-25T11:52:32.854Z,22.62
2022-12-25T11:53:32.823Z,22.52
2022-12-25T11:54:32.805Z,22.62
2022-12-25T11:55:32.805Z,22.57
2022-12-25T11:56:32.781Z,22.52
2022-12-25T11:57:32.796Z,22.45
2022-12-25T11:58:32.758Z,22.52
2022-12-25T11:59:32.750Z,22.45
2022-12-25T12:00:32.731Z,22.57
2022-12-25T12:01:32.790Z,22.72
2022-12-25T12:02:32.995Z,22.99
2022-12-25T12:03:32.827Z,23.25
2022-12-25T12:04:38.526Z,23.51
2022-12-25T12:05:33.698Z,23.66
2022-12-25T12:06:32.676Z,23.62
2022-12-25T12:07:32.675Z,23.58
2022-12-25T12:08:32.655Z,23.27
2022-12-25T12:09:32.634Z,23.12
2022-12-25T12:10:32.613Z,23.04
2022-12-25T12:11:32.621Z,23.02
2022-12-25T12:12:32.594Z,23.43
2022-12-25T12:13:32.620Z,23.76
2022-12-25T12:14:32.570Z,24.14
2022-12-25T12:15:32.576Z,24.68
2022-12-25T12:16:32.651Z,25.07
2022-12-25T12:17:32.561Z,25.38
2022-12-25T12:18:32.588Z,25.51
2022-12-25T12:19:32.541Z,25.75
2022-12-25T12:20:32.495Z,26.36
2022-12-25T12:21:32.506Z,27.00
2022-12-25T12:22:32.488Z,27.70
2022-12-25T12:23:32.489Z,27.99
2022-12-25T12:24:32.475Z,28.20
2022-12-25T12:25:32.482Z,28.41
2022-12-25T12:26:32.422Z,28.50
2022-12-25T12:27:32.431Z,28.62
2022-12-25T12:28:32.398Z,28.68
2022-12-25T12:29:32.427Z,29.02
2022-12-25T12:30:32.402Z,29.50
2022-12-25T12:31:32.425Z,29.57
2022-12-25T12:32:32.368Z,30.09
2022-12-25T12:33:32.371Z,30.67
2022-12-25T12:34:32.367Z,31.30
2022-12-25T12:35:32.349Z,31.92
2022-12-25T12:36:36.758Z,32.95
2022-12-25T12:37:32.330Z,34.01
2022-12-25T12:38:32.296Z,34.92
2022-12-25T12:39:32.306Z,35.84
2022-12-25T12:40:32.275Z,37.40
2022-12-25T12:41:32.288Z,38.42
2022-12-25T12:42:32.265Z,38.78
2022-12-25T12:43:32.248Z,39.54
2022-12-25T12:44:32.231Z,40.07
2022-12-25T12:45:32.343Z,40.42
2022-12-25T12:46:32.279Z,39.96
2022-12-25T12:47:32.212Z,39.03
2022-12-25T12:48:32.183Z,38.53
2022-12-25T12:49:32.196Z,37.67
2022-12-25T12:50:32.170Z,36.94
2022-12-25T12:51:32.171Z,36.08
2022-12-25T12:52:32.172Z,35.27